Time;durP1;ratioP1;P1;durP2;ratioP2;P2;SDS_P1;SDS_P2;PMS_P1;PMS_P2;Temp;Humidity;BMP_temperature;BMP_pressure;BME280_temperature;BME280_humidity;BME280_pressure;Samples;Min_cycle;Max_cycle;Signal;HPM_P1;HPM_P2
2023/03/17 00:00:59;;;;;;;;;;;;;;;;;;4231104;27;19976;-38
2023/03/17 00:03:00;;;;;;;;;;;;;;;;;;4243357;27;19916;-37
2023/03/17 00:05:01;;;;;;;;;;;;;;;;;;4237789;27;19958;-37
2023/03/17 00:07:03;;;;;;;;;;;;;;;;;;4229332;28;19916;-37
2023/03/17 00:09:04;;;;;;;;;;;;;;;;;;4247498;27;19926;-38
2023/03/17 00:11:05;;;;;;;;;;;;;;;;;;4247501;27;19919;-37
2023/03/17 00:13:06;;;;;;;;;;;;;;;;;;4247361;27;20384;-37
2023/03/17 00:15:07;;;;;;;;;;;;;;;;;;4237924;27;19969;-37
2023/03/17 00:17:08;;;;;;;;;;;;;;;;;;4242361;27;19975;-37
2023/03/17 00:19:10;;;;;;;;;;;;;;;;;;4233258;27;20466;-37
2023/03/17 00:21:11;;;;;;;;;;;;;;;;;;4247307;27;19923;-37
2023/03/17 00:23:13;;;;;;;;;;;;;;;;;;4212159;28;19916;-37
2023/03/17 00:25:14;;;;;;;;;;;;;;;;;;4235461;27;19929;-37
2023/03/17 00:27:16;;;;;;;;;;;;;;;;;;4243876;27;19968;-37
2023/03/17 00:29:18;;;;;;;;;;;;;;;;;;4244114;27;19919;-38
2023/03/17 00:31:20;;;;;;;;;;;;;;;;;;4238350;27;20619;-37
2023/03/17 00:33:21;;;;;;;;;;;;;;;;;;4240480;27;19981;-37
2023/03/17 00:35:22;;;;;;;;;;;;;;;;;;4232689;27;19927;-37
2023/03/17 00:37:23;;;;;;;;;;;;;;;;;;4247216;27;20266;-37
2023/03/17 00:39:25;;;;;;;;;;;;;;;;;;4247426;27;19930;-37
2023/03/17 00:41:28;;;;;;;;;;;;;;;;;;4218560;28;20325;-37
2023/03/17 00:43:29;;;;;;;;;;;;;;;;;;4243415;27;19919;-37
2023/03/17 00:45:31;;;;;;;;;;;;;;;;;;4246690;27;19916;-37
2023/03/17 00:47:32;;;;;;;;;;;;;;;;;;4246247;27;19979;-37
2023/03/17 00:49:34;;;;;;;;;;;;;;;;;;4237766;27;20315;-37
2023/03/17 00:51:35;;;;;;;;;;;;;;;;;;4241737;27;19919;-37
2023/03/17 00:53:36;;;;;;;;;;;;;;;;;;4246452;27;19958;-37
2023/03/17 00:55:36;;;;;;;;;;;;;;;;;;4245663;27;19958;-37
2023/03/17 00:57:38;;;;;;;;;;;;;;;;;;4237409;27;19916;-37
2023/03/17 00:59:39;;;;;;;;;;;;;;;;;;4245862;27;19919;-37
2023/03/17 01:01:44;;;;;;;;;;;;;;;;;;4232240;27;19968;-37
2023/03/17 01:03:46;;;;;;;;;;;;;;;;;;4246361;27;19919;-37
2023/03/17 01:05:48;;;;;;;;;;;;;;;;;;4246245;27;19976;-37
2023/03/17 01:07:51;;;;;;;;;;;;;;;;;;4246313;27;19969;-37
2023/03/17 01:09:53;;;;;;;;;;;;;;;;;;4246146;27;19926;-37
2023/03/17 01:11:54;;;;;;;;;;;;;;;;;;4246741;27;19919;-37
2023/03/17 01:13:55;;;;;;;;;;;;;;;;;;4246435;27;19936;-37
2023/03/17 01:15:56;;;;;;;;;;;;;;;;;;4228042;28;19916;-37
2023/03/17 01:17:58;;;;;;;;;;;;;;;;;;4232933;27;20389;-37
2023/03/17 01:19:58;;;;;;;;;;;;;;;;;;4243103;27;19919;-38
2023/03/17 01:22:00;;;;;;;;;;;;;;;;;;4234697;27;19995;-37
2023/03/17 01:24:01;;;;;;;;;;;;;;;;;;4234336;27;20256;-37
2023/03/17 01:26:02;;;;;;;;;;;;;;;;;;4236129;27;20426;-37
2023/03/17 01:28:04;;;;;;;;;;;;;;;;;;4231575;27;19919;-38
2023/03/17 01:30:06;;;;;;;;;;;;;;;;;;4246170;27;19915;-37
2023/03/17 01:32:07;;;;;;;;;;;;;;;;;;4245764;28;19923;-38
2023/03/17 01:34:08;;;;;;;;;;;;;;;;;;4217180;28;20033;-37
2023/03/17 01:36:10;;;;;;;;;;;;;;;;;;4227164;28;20311;-37
2023/03/17 01:38:11;;;;;;;;;;;;;;;;;;4229222;28;19916;-37
2023/03/17 01:40:14;;;;;;;;;;;;;;;;;;4218150;28;20247;-37
2023/03/17 01:42:16;;;;;;;;;;;;;;;;;;4217662;28;19915;-37
2023/03/17 01:44:17;;;;;;;;;;;;;;;;;;4231108;28;19916;-37
2023/03/17 01:46:21;;;;;;;;;;;;;;;;;;4216641;28;20290;-38
2023/03/17 01:48:22;;;;;;;;;;;;;;;;;;4243428;27;20067;-37
2023/03/17 01:50:24;;;;;;;;;;;;;;;;;;4242483;27;19919;-37
2023/03/17 01:52:26;;;;;;;;;;;;;;;;;;4231669;28;19928;-37
2023/03/17 01:54:27;;;;;;;;;;;;;;;;;;4247400;27;19915;-37
2023/03/17 01:56:29;;;;;;;;;;;;;;;;;;4222692;28;19945;-37
2023/03/17 01:58:30;;;;;;;;;;;;;;;;;;4231366;28;20705;-37
2023/03/17 02:00:31;;;;;;;;;;;;;;;;;;4231153;28;19923;-37
2023/03/17 02:02:32;;;;;;;;;;;;;;;;;;4234757;27;19919;-37
2023/03/17 02:04:33;;;;;;;;;;;;;;;;;;4249551;27;19976;-37
2023/03/17 02:06:34;;;;;;;;;;;;;;;;;;4241989;27;19915;-37
2023/03/17 02:08:36;;;;;;;;;;;;;;;;;;4243365;27;19915;-37
2023/03/17 02:10:37;;;;;;;;;;;;;;;;;;4249209;27;19919;-37
2023/03/17 02:12:38;;;;;;;;;;;;;;;;;;4232068;28;19919;-37
2023/03/17 02:14:40;;;;;;;;;;;;;;;;;;4225062;28;19965;-37
2023/03/17 02:16:42;;;;;;;;;;;;;;;;;;4213729;28;19924;-37
2023/03/17 02:18:43;;;;;;;;;;;;;;;;;;4227014;28;19916;-37
2023/03/17 02:20:49;;;;;;;;;;;;;;;;;;4247959;27;19926;-37
2023/03/17 02:22:54;;;;;;;;;;;;;;;;;;4249024;27;20255;-37
2023/03/17 02:24:55;;;;;;;;;;;;;;;;;;4249181;27;19983;-38
2023/03/17 02:26:57;;;;;;;;;;;;;;;;;;4249050;27;19995;-38
2023/03/17 02:28:58;;;;;;;;;;;;;;;;;;4227755;28;19920;-37
2023/03/17 02:30:59;;;;;;;;;;;;;;;;;;4237384;27;20364;-37
2023/03/17 02:33:00;;;;;;;;;;;;;;;;;;4240003;27;19923;-37
2023/03/17 02:35:01;;;;;;;;;;;;;;;;;;4243826;27;19915;-37
2023/03/17 02:37:02;;;;;;;;;;;;;;;;;;4248373;27;20038;-37
2023/03/17 02:39:04;;;;;;;;;;;;;;;;;;4244539;27;19919;-37
2023/03/17 02:41:06;;;;;;;;;;;;;;;;;;4239530;27;19916;-37
2023/03/17 02:43:07;;;;;;;;;;;;;;;;;;4247485;27;19989;-37
2023/03/17 02:45:10;;;;;;;;;;;;;;;;;;4230574;28;19969;-37
2023/03/17 02:47:12;;;;;;;;;;;;;;;;;;4229858;28;19920;-37
2023/03/17 02:49:13;;;;;;;;;;;;;;;;;;4231911;27;19915;-37
2023/03/17 02:51:15;;;;;;;;;;;;;;;;;;4241753;27;19922;-37
2023/03/17 02:53:16;;;;;;;;;;;;;;;;;;4248871;27;19919;-37
2023/03/17 02:55:17;;;;;;;;;;;;;;;;;;4229116;28;20283;-37
2023/03/17 02:57:18;;;;;;;;;;;;;;;;;;4233297;27;20233;-37
2023/03/17 02:59:20;;;;;;;;;;;;;;;;;;4240761;27;20396;-37
2023/03/17 03:01:21;;;;;;;;;;;;;;;;;;4247964;27;19915;-38
2023/03/17 03:03:22;;;;;;;;;;;;;;;;;;4246648;27;19923;-37
2023/03/17 03:05:23;;;;;;;;;;;;;;;;;;4212657;28;19916;-37
2023/03/17 03:07:25;;;;;;;;;;;;;;;;;;4239133;27;19915;-37
2023/03/17 03:09:26;;;;;;;;;;;;;;;;;;4219226;28;20096;-37
2023/03/17 03:11:28;;;;;;;;;;;;;;;;;;4245476;27;19919;-37
2023/03/17 03:13:29;;;;;;;;;;;;;;;;;;4248402;27;19964;-37
2023/03/17 03:15:30;;;;;;;;;;;;;;;;;;4248225;27;19919;-38
2023/03/17 03:17:32;;;;;;;;;;;;;;;;;;4247676;27;20351;-37
2023/03/17 03:19:33;;;;;;;;;;;;;;;;;;4248258;27;20297;-40
2023/03/17 03:21:35;;;;;;;;;;;;;;;;;;4248094;27;19957;-37
2023/03/17 03:23:36;;;;;;;;;;;;;;;;;;4248259;27;20396;-37
2023/03/17 03:25:37;;;;;;;;;;;;;;;;;;4229894;28;19946;-37
2023/03/17 03:27:38;;;;;;;;;;;;;;;;;;4235835;27;19923;-37
2023/03/17 03:29:40;;;;;;;;;;;;;;;;;;4232409;27;19916;-38
2023/03/17 03:31:41;;;;;;;;;;;;;;;;;;4242611;27;19922;-37
2023/03/17 03:33:42;;;;;;;;;;;;;;;;;;4239040;27;19923;-37
2023/03/17 03:35:43;;;;;;;;;;;;;;;;;;4248187;27;19916;-37
2023/03/17 03:37:44;;;;;;;;;;;;;;;;;;4247409;27;20290;-37
2023/03/17 03:39:46;;;;;;;;;;;;;;;;;;4247799;27;19915;-36
2023/03/17 03:41:47;;;;;;;;;;;;;;;;;;4240640;27;20252;-36
2023/03/17 03:43:48;;;;;;;;;;;;;;;;;;4241288;27;19922;-36
2023/03/17 03:45:49;;;;;;;;;;;;;;;;;;4248196;27;20027;-36
2023/03/17 03:47:50;;;;;;;;;;;;;;;;;;4247034;27;20391;-37
2023/03/17 03:49:51;;;;;;;;;;;;;;;;;;4247960;27;19961;-36
2023/03/17 03:51:59;;;;;;;;;;;;;;;;;;4247783;27;19971;-36
2023/03/17 03:54:00;;;;;;;;;;;;;;;;;;4247687;27;20363;-37
2023/03/17 03:56:01;;;;;;;;;;;;;;;;;;4245435;27;19941;-36
2023/03/17 03:58:03;;;;;;;;;;;;;;;;;;4223780;28;19920;-36
2023/03/17 04:00:04;;;;;;;;;;;;;;;;;;4230595;28;19922;-36
2023/03/17 04:02:12;;;;;;;;;;;;;;;;;;4243153;27;20271;-36
2023/03/17 04:04:13;;;;;;;;;;;;;;;;;;4247180;27;19915;-36
2023/03/17 04:06:15;;;;;;;;;;;;;;;;;;4241571;27;19916;-36
2023/03/17 04:08:16;;;;;;;;;;;;;;;;;;4239338;27;19915;-36
2023/03/17 04:10:17;;;;;;;;;;;;;;;;;;4235270;27;19923;-36
2023/03/17 04:12:19;;;;;;;;;;;;;;;;;;4244633;27;19923;-36
2023/03/17 04:14:20;;;;;;;;;;;;;;;;;;4247400;27;19992;-37
2023/03/17 04:16:21;;;;;;;;;;;;;;;;;;4246876;27;19915;-36
2023/03/17 04:18:22;;;;;;;;;;;;;;;;;;4247167;27;19991;-36
2023/03/17 04:20:24;;;;;;;;;;;;;;;;;;4228819;28;19920;-36
2023/03/17 04:22:25;;;;;;;;;;;;;;;;;;4247394;27;19916;-37
2023/03/17 04:24:27;;;;;;;;;;;;;;;;;;4240439;27;19916;-36
2023/03/17 04:26:28;;;;;;;;;;;;;;;;;;4218610;28;19923;-36
2023/03/17 04:28:29;;;;;;;;;;;;;;;;;;4243259;27;19919;-36
2023/03/17 04:30:31;;;;;;;;;;;;;;;;;;4232733;27;19938;-36
2023/03/17 04:32:32;;;;;;;;;;;;;;;;;;4246616;27;20306;-36
2023/03/17 04:34:33;;;;;;;;;;;;;;;;;;4238290;27;19969;-36
2023/03/17 04:36:34;;;;;;;;;;;;;;;;;;4241970;27;19926;-37
2023/03/17 04:38:35;;;;;;;;;;;;;;;;;;4232827;27;19920;-37
2023/03/17 04:40:36;;;;;;;;;;;;;;;;;;4242737;27;19977;-37
2023/03/17 04:42:37;;;;;;;;;;;;;;;;;;4237468;27;19919;-37
2023/03/17 04:44:38;;;;;;;;;;;;;;;;;;4246844;27;19915;-37
2023/03/17 04:46:39;;;;;;;;;;;;;;;;;;4245884;27;19984;-37
2023/03/17 04:48:40;;;;;;;;;;;;;;;;;;4243474;27;20276;-36
2023/03/17 04:50:41;;;;;;;;;;;;;;;;;;4236268;27;19915;-36
2023/03/17 04:52:43;;;;;;;;;;;;;;;;;;4246464;27;19969;-37
2023/03/17 04:54:44;;;;;;;;;;;;;;;;;;4246764;27;20249;-36
2023/03/17 04:56:45;;;;;;;;;;;;;;;;;;4232237;27;19916;-37
2023/03/17 04:58:46;;;;;;;;;;;;;;;;;;4246641;27;19915;-37
2023/03/17 05:00:47;;;;;;;;;;;;;;;;;;4245322;27;20359;-37
2023/03/17 05:02:48;;;;;;;;;;;;;;;;;;4234607;27;19920;-37
2023/03/17 05:04:50;;;;;;;;;;;;;;;;;;4244462;27;20284;-37
2023/03/17 05:06:50;;;;;;;;;;;;;;;;;;4246528;27;20043;-37
2023/03/17 05:08:52;;;;;;;;;;;;;;;;;;4239133;27;19915;-37
2023/03/17 05:10:53;;;;;;;;;;;;;;;;;;4237910;27;20674;-37
2023/03/17 05:12:54;;;;;;;;;;;;;;;;;;4246381;27;20055;-37
2023/03/17 05:14:55;;;;;;;;;;;;;;;;;;4246651;27;19915;-37
2023/03/17 05:16:56;;;;;;;;;;;;;;;;;;4246130;27;19915;-37
2023/03/17 05:18:57;;;;;;;;;;;;;;;;;;4236746;27;20350;-37
2023/03/17 05:20:58;;;;;;;;;;;;;;;;;;4242320;27;19981;-37
2023/03/17 05:22:59;;;;;;;;;;;;;;;;;;4227650;28;19923;-37
2023/03/17 05:25:00;;;;;;;;;;;;;;;;;;4246066;27;20318;-36
2023/03/17 05:27:01;;;;;;;;;;;;;;;;;;4237886;27;19967;-37
2023/03/17 05:29:02;;;;;;;;;;;;;;;;;;4229698;28;19920;-37
2023/03/17 05:31:04;;;;;;;;;;;;;;;;;;4218188;28;19919;-37
2023/03/17 05:33:05;;;;;;;;;;;;;;;;;;4233109;28;19915;-37
2023/03/17 05:35:06;;;;;;;;;;;;;;;;;;4246327;27;19976;-37
2023/03/17 05:37:07;;;;;;;;;;;;;;;;;;4246487;27;19980;-37
2023/03/17 05:39:08;;;;;;;;;;;;;;;;;;4246397;27;19916;-37
2023/03/17 05:41:09;;;;;;;;;;;;;;;;;;4232321;28;19926;-37
2023/03/17 05:43:11;;;;;;;;;;;;;;;;;;4240623;28;20396;-37
2023/03/17 05:45:12;;;;;;;;;;;;;;;;;;4242730;28;19972;-37
2023/03/17 05:47:13;;;;;;;;;;;;;;;;;;4232834;28;19924;-37
2023/03/17 05:49:14;;;;;;;;;;;;;;;;;;4244892;28;19980;-37
2023/03/17 05:51:15;;;;;;;;;;;;;;;;;;4246101;28;19915;-37
2023/03/17 05:53:17;;;;;;;;;;;;;;;;;;4237867;28;19919;-37
2023/03/17 05:55:18;;;;;;;;;;;;;;;;;;4240839;28;19915;-37
2023/03/17 05:57:20;;;;;;;;;;;;;;;;;;4243941;28;19919;-37
2023/03/17 05:59:21;;;;;;;;;;;;;;;;;;4233518;28;20052;-37
2023/03/17 06:01:23;;;;;;;;;;;;;;;;;;4241730;28;19980;-37
2023/03/17 06:03:24;;;;;;;;;;;;;;;;;;4244093;28;20022;-37
2023/03/17 06:05:25;;;;;;;;;;;;;;;;;;4244202;28;19926;-37
2023/03/17 06:07:26;;;;;;;;;;;;;;;;;;4205790;28;20283;-37
2023/03/17 06:09:27;;;;;;;;;;;;;;;;;;4227399;28;19919;-37
2023/03/17 06:11:29;;;;;;;;;;;;;;;;;;4236449;28;19919;-37
2023/03/17 06:13:30;;;;;;;;;;;;;;;;;;4230872;28;19930;-37
2023/03/17 06:15:32;;;;;;;;;;;;;;;;;;4243046;28;19964;-38
2023/03/17 06:17:33;;;;;;;;;;;;;;;;;;4243727;28;19919;-37
2023/03/17 06:19:34;;;;;;;;;;;;;;;;;;4235266;28;19915;-37
2023/03/17 06:21:35;;;;;;;;;;;;;;;;;;4237343;28;19995;-37
2023/03/17 06:23:36;;;;;;;;;;;;;;;;;;4229619;28;19926;-37
2023/03/17 06:25:38;;;;;;;;;;;;;;;;;;4243324;28;19968;-37
2023/03/17 06:27:39;;;;;;;;;;;;;;;;;;4236148;28;19920;-37
2023/03/17 06:29:40;;;;;;;;;;;;;;;;;;4239186;27;19919;-38
2023/03/17 06:31:42;;;;;;;;;;;;;;;;;;4246497;27;19923;-37
2023/03/17 06:33:43;;;;;;;;;;;;;;;;;;4233433;27;19960;-37
2023/03/17 06:35:44;;;;;;;;;;;;;;;;;;4237417;27;19977;-38
2023/03/17 06:37:46;;;;;;;;;;;;;;;;;;4237604;27;19972;-39
2023/03/17 06:39:47;;;;;;;;;;;;;;;;;;4233726;27;19938;-37
2023/03/17 06:41:48;;;;;;;;;;;;;;;;;;4231796;27;19919;-37
2023/03/17 06:43:49;;;;;;;;;;;;;;;;;;4246877;27;19919;-38
2023/03/17 06:45:51;;;;;;;;;;;;;;;;;;4228639;28;20428;-38
2023/03/17 06:47:52;;;;;;;;;;;;;;;;;;4227948;28;19919;-37
2023/03/17 06:49:54;;;;;;;;;;;;;;;;;;4232230;27;19923;-37
2023/03/17 06:51:55;;;;;;;;;;;;;;;;;;4242378;27;19919;-38
2023/03/17 06:53:56;;;;;;;;;;;;;;;;;;4228426;27;19967;-37
2023/03/17 06:55:57;;;;;;;;;;;;;;;;;;4231164;27;19919;-37
2023/03/17 06:57:59;;;;;;;;;;;;;;;;;;4238525;27;20408;-38
2023/03/17 07:00:00;;;;;;;;;;;;;;;;;;4237474;27;19923;-37
2023/03/17 07:02:01;;;;;;;;;;;;;;;;;;4239369;27;20295;-37
2023/03/17 07:04:02;;;;;;;;;;;;;;;;;;4237165;27;19919;-37
2023/03/17 07:06:03;;;;;;;;;;;;;;;;;;4217678;28;19945;-37
2023/03/17 07:08:04;;;;;;;;;;;;;;;;;;4234337;27;19926;-37
2023/03/17 07:10:05;;;;;;;;;;;;;;;;;;4228266;27;20335;-37
2023/03/17 07:12:07;;;;;;;;;;;;;;;;;;4233542;27;19926;-37
2023/03/17 07:14:08;;;;;;;;;;;;;;;;;;4222706;27;20461;-36
2023/03/17 07:16:10;;;;;;;;;;;;;;;;;;4226833;27;19919;-37
2023/03/17 07:18:11;;;;;;;;;;;;;;;;;;4230568;27;20390;-37
2023/03/17 07:20:12;;;;;;;;;;;;;;;;;;4213108;28;20520;-37
2023/03/17 07:22:13;;;;;;;;;;;;;;;;;;4228289;27;19919;-39
2023/03/17 07:24:15;;;;;;;;;;;;;;;;;;4226013;27;19931;-38
2023/03/17 07:26:16;;;;;;;;;;;;;;;;;;4222300;27;20359;-39
2023/03/17 07:28:18;;;;;;;;;;;;;;;;;;4215366;27;19976;-40
2023/03/17 07:30:19;;;;;;;;;;;;;;;;;;4205169;28;19954;-37
2023/03/17 07:32:20;;;;;;;;;;;;;;;;;;4224374;27;19968;-37
2023/03/17 07:34:22;;;;;;;;;;;;;;;;;;4215426;28;19969;-38
2023/03/17 07:36:23;;;;;;;;;;;;;;;;;;4210900;28;19957;-37
2023/03/17 07:38:25;;;;;;;;;;;;;;;;;;4222224;27;19931;-37
2023/03/17 07:40:26;;;;;;;;;;;;;;;;;;4225024;27;20447;-37
2023/03/17 07:42:27;;;;;;;;;;;;;;;;;;4220912;27;19927;-34
2023/03/17 07:44:29;;;;;;;;;;;;;;;;;;4228741;27;20231;-36
2023/03/17 07:46:30;;;;;;;;;;;;;;;;;;4225772;27;19972;-36
2023/03/17 07:48:32;;;;;;;;;;;;;;;;;;4226414;27;19980;-36
2023/03/17 07:50:33;;;;;;;;;;;;;;;;;;4225418;27;19920;-35
2023/03/17 07:52:34;;;;;;;;;;;;;;;;;;4221939;27;20458;-36
2023/03/17 07:54:36;;;;;;;;;;;;;;;;;;4225504;27;19919;-36
2023/03/17 07:56:37;;;;;;;;;;;;;;;;;;4214499;27;19924;-35
2023/03/17 07:58:39;;;;;;;;;;;;;;;;;;4214125;27;20416;-36
2023/03/17 08:00:40;;;;;;;;;;;;;;;;;;4217232;27;20412;-36
2023/03/17 08:02:41;;;;;;;;;;;;;;;;;;4206181;27;20013;-36
2023/03/17 08:04:42;;;;;;;;;;;;;;;;;;4212118;27;20381;-36
2023/03/17 08:06:45;;;;;;;;;;;;;;;;;;4214550;27;20024;-36
2023/03/17 08:08:47;;;;;;;;;;;;;;;;;;4222007;27;19943;-36
2023/03/17 08:10:48;;;;;;;;;;;;;;;;;;4219245;27;20332;-35
2023/03/17 08:12:52;;;;;;;;;;;;;;;;;;4206119;27;19996;-35
2023/03/17 08:14:54;;;;;;;;;;;;;;;;;;4216287;27;19924;-35
2023/03/17 08:16:55;;;;;;;;;;;;;;;;;;4217125;27;20339;-35
2023/03/17 08:18:57;;;;;;;;;;;;;;;;;;4212127;27;20378;-35
2023/03/17 08:20:58;;;;;;;;;;;;;;;;;;4202820;28;19924;-36
2023/03/17 08:23:00;;;;;;;;;;;;;;;;;;4212566;27;19989;-36
2023/03/17 08:25:01;;;;;;;;;;;;;;;;;;4218226;27;20333;-36
2023/03/17 08:27:02;;;;;;;;;;;;;;;;;;4216400;27;19928;-36
2023/03/17 08:29:03;;;;;;;;;;;;;;;;;;4211868;27;19924;-36
2023/03/17 08:31:05;;;;;;;;;;;;;;;;;;4216121;27;19935;-35
2023/03/17 08:33:07;;;;;;;;;;;;;;;;;;4215717;27;20384;-35
2023/03/17 08:35:07;;;;;;;;;;;;;;;;;;4217568;27;20208;-35
2023/03/17 08:37:09;;;;;;;;;;;;;;;;;;4208091;27;19924;-37
2023/03/17 08:39:09;;;;;;;;;;;;;;;;;;4220072;27;20240;-35
2023/03/17 08:41:11;;;;;;;;;;;;;;;;;;4208808;27;20380;-35
2023/03/17 08:43:12;;;;;;;;;;;;;;;;;;4215244;27;20303;-34
2023/03/17 08:45:13;;;;;;;;;;;;;;;;;;4215848;27;19923;-35
2023/03/17 08:47:15;;;;;;;;;;;;;;;;;;4207304;28;19961;-35
2023/03/17 08:49:16;;;;;;;;;;;;;;;;;;4217803;27;19920;-35
2023/03/17 08:51:17;;;;;;;;;;;;;;;;;;4213140;27;19927;-36
2023/03/17 08:53:19;;;;;;;;;;;;;;;;;;4215532;27;19927;-36
2023/03/17 08:55:21;;;;;;;;;;;;;;;;;;4211677;27;19984;-36
2023/03/17 08:57:21;;;;;;;;;;;;;;;;;;4215379;27;19923;-36
2023/03/17 08:59:22;;;;;;;;;;;;;;;;;;4215952;27;19996;-35
2023/03/17 09:01:24;;;;;;;;;;;;;;;;;;4209682;27;20420;-36
2023/03/17 09:03:25;;;;;;;;;;;;;;;;;;4214407;27;19997;-35
2023/03/17 09:05:26;;;;;;;;;;;;;;;;;;4214557;27;20007;-34
2023/03/17 09:07:27;;;;;;;;;;;;;;;;;;4213779;27;20033;-35
2023/03/17 09:09:29;;;;;;;;;;;;;;;;;;4213121;27;20518;-35
2023/03/17 09:11:31;;;;;;;;;;;;;;;;;;4213866;27;19928;-35
2023/03/17 09:13:32;;;;;;;;;;;;;;;;;;4210727;27;19969;-35
2023/03/17 09:15:34;;;;;;;;;;;;;;;;;;4205562;27;19953;-35
2023/03/17 09:17:35;;;;;;;;;;;;;;;;;;4213553;27;19923;-34
2023/03/17 09:19:36;;;;;;;;;;;;;;;;;;4212811;27;19924;-36
2023/03/17 09:21:37;;;;;;;;;;;;;;;;;;4215195;27;20390;-37
2023/03/17 09:23:38;;;;;;;;;;;;;;;;;;4217522;27;19927;-35
2023/03/17 09:25:43;;;;;;;;;;;;;;;;;;4203945;28;19932;-35
2023/03/17 09:27:44;;;;;;;;;;;;;;;;;;4211193;27;19923;-35
2023/03/17 09:29:45;;;;;;;;;;;;;;;;;;4215152;27;20018;-35
2023/03/17 09:31:46;;;;;;;;;;;;;;;;;;4211038;27;19992;-35
2023/03/17 09:33:47;;;;;;;;;;;;;;;;;;4203773;28;19923;-35
2023/03/17 09:35:49;;;;;;;;;;;;;;;;;;4207106;27;19992;-36
2023/03/17 09:37:50;;;;;;;;;;;;;;;;;;4213827;27;20471;-36
2023/03/17 09:39:51;;;;;;;;;;;;;;;;;;4214078;27;20368;-35
2023/03/17 09:41:55;;;;;;;;;;;;;;;;;;4217950;27;19923;-36
2023/03/17 09:43:56;;;;;;;;;;;;;;;;;;4210669;28;19928;-35
2023/03/17 09:45:58;;;;;;;;;;;;;;;;;;4211120;28;19923;-35
2023/03/17 09:47:59;;;;;;;;;;;;;;;;;;4209465;28;20410;-36
2023/03/17 09:50:00;;;;;;;;;;;;;;;;;;4216944;28;20023;-36
2023/03/17 09:52:01;;;;;;;;;;;;;;;;;;4219500;28;19928;-36
2023/03/17 09:54:03;;;;;;;;;;;;;;;;;;4216466;28;19930;-36
2023/03/17 09:56:04;;;;;;;;;;;;;;;;;;4210371;28;19923;-36
2023/03/17 09:58:06;;;;;;;;;;;;;;;;;;4208361;28;19935;-36
2023/03/17 10:00:07;;;;;;;;;;;;;;;;;;4206906;28;19923;-36
2023/03/17 10:02:08;;;;;;;;;;;;;;;;;;4206716;28;20801;-35
2023/03/17 10:04:09;;;;;;;;;;;;;;;;;;4215103;27;19985;-37
2023/03/17 10:06:10;;;;;;;;;;;;;;;;;;4207616;27;20712;-36
2023/03/17 10:08:12;;;;;;;;;;;;;;;;;;4205687;27;20438;-35
2023/03/17 10:10:13;;;;;;;;;;;;;;;;;;4211610;27;20372;-36
2023/03/17 10:12:14;;;;;;;;;;;;;;;;;;4215866;27;19925;-36
2023/03/17 10:14:15;;;;;;;;;;;;;;;;;;4207497;28;20634;-35
2023/03/17 10:16:17;;;;;;;;;;;;;;;;;;4218920;27;19984;-35
2023/03/17 10:18:18;;;;;;;;;;;;;;;;;;4221158;27;19927;-36
2023/03/17 10:20:20;;;;;;;;;;;;;;;;;;4202146;28;20332;-36
2023/03/17 10:22:22;;;;;;;;;;;;;;;;;;4219525;27;19923;-36
2023/03/17 10:24:23;;;;;;;;;;;;;;;;;;4218104;27;19945;-36
2023/03/17 10:26:24;;;;;;;;;;;;;;;;;;4214776;27;19928;-36
2023/03/17 10:28:26;;;;;;;;;;;;;;;;;;4217648;27;20040;-36
2023/03/17 10:30:27;;;;;;;;;;;;;;;;;;4221435;27;21431;-36
2023/03/17 10:32:28;;;;;;;;;;;;;;;;;;4213571;27;19999;-38
2023/03/17 10:34:29;;;;;;;;;;;;;;;;;;4218499;27;20010;-35
2023/03/17 10:36:30;;;;;;;;;;;;;;;;;;4225343;27;19924;-36
2023/03/17 10:38:31;;;;;;;;;;;;;;;;;;4212460;27;20004;-36
2023/03/17 10:40:32;;;;;;;;;;;;;;;;;;4214935;27;19969;-36
2023/03/17 10:42:34;;;;;;;;;;;;;;;;;;4190982;28;20249;-37
2023/03/17 10:44:35;;;;;;;;;;;;;;;;;;4222547;27;19980;-35
2023/03/17 10:46:37;;;;;;;;;;;;;;;;;;4222601;27;19923;-36
2023/03/17 10:48:38;;;;;;;;;;;;;;;;;;4225350;27;19919;-36
2023/03/17 10:50:39;;;;;;;;;;;;;;;;;;4224380;27;20580;-36
2023/03/17 10:52:41;;;;;;;;;;;;;;;;;;4223630;27;20653;-36
2023/03/17 10:54:45;;;;;;;;;;;;;;;;;;4221379;27;20183;-36
2023/03/17 10:56:46;;;;;;;;;;;;;;;;;;4228815;27;19923;-36
2023/03/17 10:58:48;;;;;;;;;;;;;;;;;;4223929;27;19923;-36
2023/03/17 11:00:49;;;;;;;;;;;;;;;;;;4218986;27;19971;-36
2023/03/17 11:02:51;;;;;;;;;;;;;;;;;;4219984;27;20285;-36
2023/03/17 11:04:52;;;;;;;;;;;;;;;;;;4222478;27;19919;-36
2023/03/17 11:06:53;;;;;;;;;;;;;;;;;;4222761;27;19923;-36
2023/03/17 11:08:54;;;;;;;;;;;;;;;;;;4205488;28;20958;-36
2023/03/17 11:10:55;;;;;;;;;;;;;;;;;;4219208;27;19919;-35
2023/03/17 11:12:57;;;;;;;;;;;;;;;;;;4187094;28;19928;-34
2023/03/17 11:14:59;;;;;;;;;;;;;;;;;;4209737;28;19924;-34
2023/03/17 11:17:00;;;;;;;;;;;;;;;;;;4226810;27;19923;-34
2023/03/17 11:19:01;;;;;;;;;;;;;;;;;;4225703;27;19979;-34
2023/03/17 11:21:02;;;;;;;;;;;;;;;;;;4224320;27;21643;-34
2023/03/17 11:23:04;;;;;;;;;;;;;;;;;;4219536;27;20171;-34
2023/03/17 11:25:05;;;;;;;;;;;;;;;;;;4225746;27;19923;-34
2023/03/17 11:27:07;;;;;;;;;;;;;;;;;;4226487;27;20374;-34
2023/03/17 11:29:08;;;;;;;;;;;;;;;;;;4228411;27;19920;-34
2023/03/17 11:31:11;;;;;;;;;;;;;;;;;;4225654;27;20678;-34
2023/03/17 11:33:13;;;;;;;;;;;;;;;;;;4229650;27;19946;-34
2023/03/17 11:35:15;;;;;;;;;;;;;;;;;;4224446;27;20090;-33
2023/03/17 11:37:16;;;;;;;;;;;;;;;;;;4223340;27;19965;-34
2023/03/17 11:39:18;;;;;;;;;;;;;;;;;;4217870;27;19919;-35
2023/03/17 11:41:19;;;;;;;;;;;;;;;;;;4215216;27;20603;-35
2023/03/17 11:43:20;;;;;;;;;;;;;;;;;;4223814;27;19922;-35
2023/03/17 11:45:22;;;;;;;;;;;;;;;;;;4220874;27;20434;-36
2023/03/17 11:47:23;;;;;;;;;;;;;;;;;;4225961;27;19923;-36
2023/03/17 11:49:24;;;;;;;;;;;;;;;;;;4222227;27;19927;-35
2023/03/17 11:51:26;;;;;;;;;;;;;;;;;;4219928;27;19923;-35
2023/03/17 11:53:27;;;;;;;;;;;;;;;;;;4222367;27;20311;-35
2023/03/17 11:55:28;;;;;;;;;;;;;;;;;;4221020;27;20043;-35
2023/03/17 11:57:31;;;;;;;;;;;;;;;;;;4217179;27;19923;-36
2023/03/17 11:59:32;;;;;;;;;;;;;;;;;;4209684;27;19923;-35
2023/03/17 12:01:33;;;;;;;;;;;;;;;;;;4200001;28;19940;-36
2023/03/17 12:03:34;;;;;;;;;;;;;;;;;;4205910;27;19954;-36
2023/03/17 12:05:36;;;;;;;;;;;;;;;;;;4218515;27;19916;-36
2023/03/17 12:07:37;;;;;;;;;;;;;;;;;;4217191;27;19927;-36
2023/03/17 12:09:38;;;;;;;;;;;;;;;;;;4221624;27;20052;-36
2023/03/17 12:11:39;;;;;;;;;;;;;;;;;;4215064;27;19949;-37
2023/03/17 12:13:41;;;;;;;;;;;;;;;;;;4216267;27;19923;-37
2023/03/17 12:15:43;;;;;;;;;;;;;;;;;;4220699;27;19933;-36
2023/03/17 12:17:44;;;;;;;;;;;;;;;;;;4222413;27;21176;-36
2023/03/17 12:19:45;;;;;;;;;;;;;;;;;;4218689;27;21417;-34
2023/03/17 12:21:49;;;;;;;;;;;;;;;;;;4217194;27;19923;-34
2023/03/17 12:23:49;;;;;;;;;;;;;;;;;;4215066;27;19924;-34
2023/03/17 12:25:51;;;;;;;;;;;;;;;;;;4219501;27;19988;-36
2023/03/17 12:27:52;;;;;;;;;;;;;;;;;;4201314;28;19938;-36
2023/03/17 12:29:54;;;;;;;;;;;;;;;;;;4216844;27;20488;-37
2023/03/17 12:31:55;;;;;;;;;;;;;;;;;;4218692;27;19976;-36
2023/03/17 12:33:56;;;;;;;;;;;;;;;;;;4214832;27;20344;-36
2023/03/17 12:35:57;;;;;;;;;;;;;;;;;;4210590;28;19954;-36
2023/03/17 12:37:58;;;;;;;;;;;;;;;;;;4206928;28;20900;-36
2023/03/17 12:39:59;;;;;;;;;;;;;;;;;;4221578;27;20275;-35
2023/03/17 12:42:00;;;;;;;;;;;;;;;;;;4220896;27;19923;-34
2023/03/17 12:44:01;;;;;;;;;;;;;;;;;;4218304;27;19972;-35
2023/03/17 12:46:02;;;;;;;;;;;;;;;;;;4216608;27;19927;-35
2023/03/17 12:48:03;;;;;;;;;;;;;;;;;;4221917;27;19923;-34
2023/03/17 12:50:05;;;;;;;;;;;;;;;;;;4222427;27;20351;-34
2023/03/17 12:52:06;;;;;;;;;;;;;;;;;;4211084;27;20398;-35
2023/03/17 12:54:09;;;;;;;;;;;;;;;;;;4222221;27;21630;-34
2023/03/17 12:56:10;;;;;;;;;;;;;;;;;;4218219;27;19923;-36
2023/03/17 12:58:11;;;;;;;;;;;;;;;;;;4217040;27;20386;-35
2023/03/17 13:00:12;;;;;;;;;;;;;;;;;;4214005;27;20020;-35
2023/03/17 13:02:14;;;;;;;;;;;;;;;;;;4215118;27;19923;-36
2023/03/17 13:04:15;;;;;;;;;;;;;;;;;;4216288;27;19935;-36
2023/03/17 13:06:16;;;;;;;;;;;;;;;;;;4220328;27;20750;-36
2023/03/17 13:08:19;;;;;;;;;;;;;;;;;;4218712;27;19969;-36
2023/03/17 13:10:20;;;;;;;;;;;;;;;;;;4216457;27;19919;-36
2023/03/17 13:12:21;;;;;;;;;;;;;;;;;;4219132;27;20715;-36
2023/03/17 13:14:24;;;;;;;;;;;;;;;;;;4215431;27;20310;-36
2023/03/17 13:16:25;;;;;;;;;;;;;;;;;;4221551;27;20019;-36
2023/03/17 13:18:26;;;;;;;;;;;;;;;;;;4225762;27;20311;-35
2023/03/17 13:20:28;;;;;;;;;;;;;;;;;;4208781;28;20017;-35
2023/03/17 13:22:29;;;;;;;;;;;;;;;;;;4223429;27;20386;-35
2023/03/17 13:24:30;;;;;;;;;;;;;;;;;;4214315;27;19923;-35
2023/03/17 13:26:50;;;;;;;;;;;;;;;;;;4217585;27;20195;-35
2023/03/17 13:29:10;;;;;;;;;;;;;;;;;;4222147;27;19926;-35
2023/03/17 13:31:11;;;;;;;;;;;;;;;;;;4202081;28;20118;-35
2023/03/17 13:33:12;;;;;;;;;;;;;;;;;;4226731;27;19945;-35
2023/03/17 13:35:15;;;;;;;;;;;;;;;;;;4206961;28;19931;-35
2023/03/17 13:37:16;;;;;;;;;;;;;;;;;;4222306;27;20024;-35
2023/03/17 13:39:17;;;;;;;;;;;;;;;;;;4223751;27;19923;-35
2023/03/17 13:41:18;;;;;;;;;;;;;;;;;;4222205;27;20008;-35
2023/03/17 13:43:20;;;;;;;;;;;;;;;;;;4220409;27;20499;-35
2023/03/17 13:45:21;;;;;;;;;;;;;;;;;;4214896;28;19968;-35
2023/03/17 13:47:22;;;;;;;;;;;;;;;;;;4221515;28;19919;-35
2023/03/17 13:49:23;;;;;;;;;;;;;;;;;;4221362;28;20449;-35